sensor_id;sensor_type;location;lat;lon;timestamp;P1;durP1;ratioP1;P2;durP2;ratioP2
46290;SDS011;32023;44.444;26.006;2023-07-30T00:00:26;13.70;;;6.32;;
46290;SDS011;32023;44.444;26.006;2023-07-30T00:02:52;11.98;;;6.60;;
46290;SDS011;32023;44.444;26.006;2023-07-30T00:05:19;13.02;;;6.05;;
46290;SDS011;32023;44.444;26.006;2023-07-30T00:07:45;7.70;;;5.60;;
46290;SDS011;32023;44.444;26.006;2023-07-30T00:10:11;11.65;;;6.45;;
46290;SDS011;32023;44.444;26.006;2023-07-30T00:12:38;15.18;;;6.28;;
46290;SDS011;32023;44.444;26.006;2023-07-30T00:15:05;11.93;;;6.22;;
46290;SDS011;32023;44.444;26.006;2023-07-30T00:17:35;11.55;;;6.18;;
46290;SDS011;32023;44.444;26.006;2023-07-30T00:20:01;10.15;;;5.53;;
46290;SDS011;32023;44.444;26.006;2023-07-30T00:22:28;12.18;;;5.20;;
46290;SDS011;32023;44.444;26.006;2023-07-30T00:24:54;11.77;;;5.55;;
46290;SDS011;32023;44.444;26.006;2023-07-30T00:27:20;15.13;;;5.25;;
46290;SDS011;32023;44.444;26.006;2023-07-30T00:29:46;12.35;;;5.88;;
46290;SDS011;32023;44.444;26.006;2023-07-30T00:32:13;9.50;;;5.25;;
46290;SDS011;32023;44.444;26.006;2023-07-30T00:34:41;11.30;;;5.43;;
46290;SDS011;32023;44.444;26.006;2023-07-30T00:37:08;13.02;;;5.43;;
46290;SDS011;32023;44.444;26.006;2023-07-30T00:39:35;9.70;;;4.75;;
46290;SDS011;32023;44.444;26.006;2023-07-30T00:42:01;9.68;;;5.00;;
46290;SDS011;32023;44.444;26.006;2023-07-30T00:44:27;10.07;;;5.43;;
46290;SDS011;32023;44.444;26.006;2023-07-30T00:46:54;12.25;;;5.07;;
46290;SDS011;32023;44.444;26.006;2023-07-30T00:49:20;9.00;;;5.13;;
46290;SDS011;32023;44.444;26.006;2023-07-30T00:51:47;5.80;;;4.15;;
46290;SDS011;32023;44.444;26.006;2023-07-30T00:54:13;9.75;;;5.30;;
46290;SDS011;32023;44.444;26.006;2023-07-30T00:56:40;9.25;;;5.20;;
46290;SDS011;32023;44.444;26.006;2023-07-30T00:59:13;12.32;;;4.82;;
46290;SDS011;32023;44.444;26.006;2023-07-30T01:01:40;7.72;;;4.43;;
46290;SDS011;32023;44.444;26.006;2023-07-30T01:04:09;10.52;;;4.70;;
46290;SDS011;32023;44.444;26.006;2023-07-30T01:06:35;7.22;;;4.43;;
46290;SDS011;32023;44.444;26.006;2023-07-30T01:09:02;9.38;;;4.72;;
46290;SDS011;32023;44.444;26.006;2023-07-30T01:11:28;8.75;;;5.43;;
46290;SDS011;32023;44.444;26.006;2023-07-30T01:13:55;7.03;;;5.07;;
46290;SDS011;32023;44.444;26.006;2023-07-30T01:16:22;10.25;;;4.75;;
46290;SDS011;32023;44.444;26.006;2023-07-30T01:18:48;8.50;;;4.85;;
46290;SDS011;32023;44.444;26.006;2023-07-30T01:21:15;10.35;;;4.75;;
46290;SDS011;32023;44.444;26.006;2023-07-30T01:23:41;10.20;;;5.22;;
46290;SDS011;32023;44.444;26.006;2023-07-30T01:26:08;10.85;;;4.85;;
46290;SDS011;32023;44.444;26.006;2023-07-30T01:28:46;6.35;;;4.40;;
46290;SDS011;32023;44.444;26.006;2023-07-30T01:31:16;6.45;;;4.25;;
46290;SDS011;32023;44.444;26.006;2023-07-30T01:33:43;6.93;;;4.10;;
46290;SDS011;32023;44.444;26.006;2023-07-30T01:36:17;8.90;;;4.88;;
46290;SDS011;32023;44.444;26.006;2023-07-30T01:38:45;7.25;;;4.97;;
46290;SDS011;32023;44.444;26.006;2023-07-30T01:41:14;12.55;;;5.13;;
46290;SDS011;32023;44.444;26.006;2023-07-30T01:43:40;8.65;;;5.13;;
46290;SDS011;32023;44.444;26.006;2023-07-30T01:46:07;8.60;;;4.72;;
46290;SDS011;32023;44.444;26.006;2023-07-30T01:48:33;10.38;;;5.30;;
46290;SDS011;32023;44.444;26.006;2023-07-30T01:50:59;9.25;;;4.95;;
46290;SDS011;32023;44.444;26.006;2023-07-30T01:53:26;8.50;;;4.93;;
46290;SDS011;32023;44.444;26.006;2023-07-30T01:55:52;6.35;;;4.63;;
46290;SDS011;32023;44.444;26.006;2023-07-30T01:58:18;6.32;;;4.38;;
46290;SDS011;32023;44.444;26.006;2023-07-30T02:00:45;8.80;;;4.63;;
46290;SDS011;32023;44.444;26.006;2023-07-30T02:03:11;10.65;;;4.93;;
46290;SDS011;32023;44.444;26.006;2023-07-30T02:05:38;7.45;;;4.78;;
46290;SDS011;32023;44.444;26.006;2023-07-30T02:08:04;7.88;;;4.53;;
46290;SDS011;32023;44.444;26.006;2023-07-30T02:10:30;6.13;;;4.57;;
46290;SDS011;32023;44.444;26.006;2023-07-30T02:12:57;8.55;;;5.22;;
46290;SDS011;32023;44.444;26.006;2023-07-30T02:15:23;6.88;;;4.65;;
46290;SDS011;32023;44.444;26.006;2023-07-30T02:17:49;6.90;;;4.63;;
46290;SDS011;32023;44.444;26.006;2023-07-30T02:20:16;5.00;;;4.10;;
46290;SDS011;32023;44.444;26.006;2023-07-30T02:22:42;8.40;;;4.55;;
46290;SDS011;32023;44.444;26.006;2023-07-30T02:25:08;8.68;;;4.53;;
46290;SDS011;32023;44.444;26.006;2023-07-30T02:27:35;12.93;;;4.70;;
46290;SDS011;32023;44.444;26.006;2023-07-30T02:30:01;5.35;;;3.88;;
46290;SDS011;32023;44.444;26.006;2023-07-30T02:32:28;10.45;;;4.47;;
46290;SDS011;32023;44.444;26.006;2023-07-30T02:34:54;6.05;;;4.40;;
46290;SDS011;32023;44.444;26.006;2023-07-30T02:37:24;12.57;;;4.15;;
46290;SDS011;32023;44.444;26.006;2023-07-30T02:39:53;6.67;;;3.80;;
46290;SDS011;32023;44.444;26.006;2023-07-30T02:42:20;6.03;;;4.32;;
46290;SDS011;32023;44.444;26.006;2023-07-30T02:44:48;6.85;;;3.75;;
46290;SDS011;32023;44.444;26.006;2023-07-30T02:47:15;7.13;;;4.38;;
46290;SDS011;32023;44.444;26.006;2023-07-30T02:49:41;5.90;;;4.03;;
46290;SDS011;32023;44.444;26.006;2023-07-30T02:52:08;13.50;;;3.92;;
46290;SDS011;32023;44.444;26.006;2023-07-30T02:54:35;5.15;;;3.45;;
46290;SDS011;32023;44.444;26.006;2023-07-30T02:57:04;9.07;;;4.27;;
46290;SDS011;32023;44.444;26.006;2023-07-30T02:59:31;7.50;;;4.30;;
46290;SDS011;32023;44.444;26.006;2023-07-30T03:02:01;9.55;;;4.05;;
46290;SDS011;32023;44.444;26.006;2023-07-30T03:04:29;7.38;;;3.70;;
46290;SDS011;32023;44.444;26.006;2023-07-30T03:06:56;7.80;;;4.63;;
46290;SDS011;32023;44.444;26.006;2023-07-30T03:09:22;6.43;;;4.38;;
46290;SDS011;32023;44.444;26.006;2023-07-30T03:11:49;6.38;;;4.10;;
46290;SDS011;32023;44.444;26.006;2023-07-30T03:14:15;15.02;;;4.97;;
46290;SDS011;32023;44.444;26.006;2023-07-30T03:16:45;11.50;;;5.07;;
46290;SDS011;32023;44.444;26.006;2023-07-30T03:19:12;7.57;;;4.82;;
46290;SDS011;32023;44.444;26.006;2023-07-30T03:21:42;7.03;;;4.30;;
46290;SDS011;32023;44.444;26.006;2023-07-30T03:24:14;7.53;;;4.70;;
46290;SDS011;32023;44.444;26.006;2023-07-30T03:26:40;7.25;;;4.65;;
46290;SDS011;32023;44.444;26.006;2023-07-30T03:29:09;9.38;;;4.88;;
46290;SDS011;32023;44.444;26.006;2023-07-30T03:31:39;6.78;;;5.07;;
46290;SDS011;32023;44.444;26.006;2023-07-30T03:34:08;15.52;;;5.28;;
46290;SDS011;32023;44.444;26.006;2023-07-30T03:36:37;9.07;;;4.75;;
46290;SDS011;32023;44.444;26.006;2023-07-30T03:39:04;9.00;;;4.40;;
46290;SDS011;32023;44.444;26.006;2023-07-30T03:41:30;6.60;;;4.93;;
46290;SDS011;32023;44.444;26.006;2023-07-30T03:43:56;9.80;;;4.60;;
46290;SDS011;32023;44.444;26.006;2023-07-30T03:46:23;6.57;;;5.00;;
46290;SDS011;32023;44.444;26.006;2023-07-30T03:48:49;7.95;;;5.18;;
46290;SDS011;32023;44.444;26.006;2023-07-30T03:51:15;7.35;;;4.53;;
46290;SDS011;32023;44.444;26.006;2023-07-30T03:53:42;13.60;;;5.60;;
46290;SDS011;32023;44.444;26.006;2023-07-30T03:56:08;8.25;;;4.68;;
46290;SDS011;32023;44.444;26.006;2023-07-30T03:58:34;9.25;;;4.90;;
46290;SDS011;32023;44.444;26.006;2023-07-30T04:01:01;10.50;;;5.10;;
46290;SDS011;32023;44.444;26.006;2023-07-30T04:03:28;10.82;;;5.07;;
46290;SDS011;32023;44.444;26.006;2023-07-30T04:05:54;9.73;;;5.22;;
46290;SDS011;32023;44.444;26.006;2023-07-30T04:08:20;6.57;;;5.28;;
46290;SDS011;32023;44.444;26.006;2023-07-30T04:10:47;9.35;;;5.47;;
46290;SDS011;32023;44.444;26.006;2023-07-30T04:13:13;11.18;;;5.10;;
46290;SDS011;32023;44.444;26.006;2023-07-30T04:15:40;7.20;;;5.43;;
46290;SDS011;32023;44.444;26.006;2023-07-30T04:18:06;9.85;;;5.80;;
46290;SDS011;32023;44.444;26.006;2023-07-30T04:20:32;7.30;;;4.97;;
46290;SDS011;32023;44.444;26.006;2023-07-30T04:22:59;9.85;;;5.45;;
46290;SDS011;32023;44.444;26.006;2023-07-30T04:25:25;8.23;;;5.50;;
46290;SDS011;32023;44.444;26.006;2023-07-30T04:27:51;13.10;;;5.45;;
46290;SDS011;32023;44.444;26.006;2023-07-30T04:30:26;6.90;;;4.75;;
46290;SDS011;32023;44.444;26.006;2023-07-30T04:32:52;7.30;;;4.95;;
46290;SDS011;32023;44.444;26.006;2023-07-30T04:35:19;12.57;;;5.10;;
46290;SDS011;32023;44.444;26.006;2023-07-30T04:37:45;10.35;;;5.28;;
46290;SDS011;32023;44.444;26.006;2023-07-30T04:40:11;6.15;;;4.40;;
46290;SDS011;32023;44.444;26.006;2023-07-30T04:42:38;9.07;;;5.45;;
46290;SDS011;32023;44.444;26.006;2023-07-30T04:45:04;7.82;;;4.85;;
46290;SDS011;32023;44.444;26.006;2023-07-30T04:47:31;8.48;;;5.47;;
46290;SDS011;32023;44.444;26.006;2023-07-30T04:49:57;7.97;;;4.50;;
46290;SDS011;32023;44.444;26.006;2023-07-30T04:52:23;6.20;;;4.47;;
46290;SDS011;32023;44.444;26.006;2023-07-30T04:54:50;8.02;;;4.30;;
46290;SDS011;32023;44.444;26.006;2023-07-30T04:57:16;9.90;;;4.20;;
46290;SDS011;32023;44.444;26.006;2023-07-30T04:59:42;6.97;;;4.30;;
46290;SDS011;32023;44.444;26.006;2023-07-30T05:02:12;7.90;;;4.57;;
46290;SDS011;32023;44.444;26.006;2023-07-30T05:04:38;6.72;;;4.38;;
46290;SDS011;32023;44.444;26.006;2023-07-30T05:07:05;8.23;;;4.70;;
46290;SDS011;32023;44.444;26.006;2023-07-30T05:09:31;7.28;;;4.38;;
46290;SDS011;32023;44.444;26.006;2023-07-30T05:11:57;7.35;;;4.43;;
46290;SDS011;32023;44.444;26.006;2023-07-30T05:14:24;6.25;;;4.10;;
46290;SDS011;32023;44.444;26.006;2023-07-30T05:16:50;7.82;;;4.47;;
46290;SDS011;32023;44.444;26.006;2023-07-30T05:19:17;8.55;;;4.72;;
46290;SDS011;32023;44.444;26.006;2023-07-30T05:21:43;6.30;;;4.18;;
46290;SDS011;32023;44.444;26.006;2023-07-30T05:24:09;5.57;;;4.03;;
46290;SDS011;32023;44.444;26.006;2023-07-30T05:26:38;8.82;;;5.10;;
46290;SDS011;32023;44.444;26.006;2023-07-30T05:29:09;9.35;;;4.40;;
46290;SDS011;32023;44.444;26.006;2023-07-30T05:31:36;5.78;;;4.45;;
46290;SDS011;32023;44.444;26.006;2023-07-30T05:34:02;6.80;;;4.40;;
46290;SDS011;32023;44.444;26.006;2023-07-30T05:36:29;8.20;;;4.60;;
46290;SDS011;32023;44.444;26.006;2023-07-30T05:38:55;8.70;;;3.92;;
46290;SDS011;32023;44.444;26.006;2023-07-30T05:41:30;6.05;;;3.85;;
46290;SDS011;32023;44.444;26.006;2023-07-30T05:43:58;5.35;;;4.03;;
46290;SDS011;32023;44.444;26.006;2023-07-30T05:46:40;7.35;;;4.40;;
46290;SDS011;32023;44.444;26.006;2023-07-30T05:49:07;6.45;;;4.10;;
46290;SDS011;32023;44.444;26.006;2023-07-30T05:51:33;8.88;;;4.47;;
46290;SDS011;32023;44.444;26.006;2023-07-30T05:54:00;7.00;;;4.82;;
46290;SDS011;32023;44.444;26.006;2023-07-30T05:56:26;5.95;;;4.28;;
46290;SDS011;32023;44.444;26.006;2023-07-30T05:58:53;6.10;;;4.00;;
46290;SDS011;32023;44.444;26.006;2023-07-30T06:01:19;6.03;;;4.28;;
46290;SDS011;32023;44.444;26.006;2023-07-30T06:03:46;5.53;;;4.20;;
46290;SDS011;32023;44.444;26.006;2023-07-30T06:06:12;6.72;;;4.13;;
46290;SDS011;32023;44.444;26.006;2023-07-30T06:08:38;6.85;;;4.32;;
46290;SDS011;32023;44.444;26.006;2023-07-30T06:11:05;8.43;;;4.25;;
46290;SDS011;32023;44.444;26.006;2023-07-30T06:13:31;9.13;;;4.38;;
46290;SDS011;32023;44.444;26.006;2023-07-30T06:15:57;9.23;;;4.32;;
46290;SDS011;32023;44.444;26.006;2023-07-30T06:18:24;8.00;;;4.50;;
46290;SDS011;32023;44.444;26.006;2023-07-30T06:20:50;5.47;;;4.15;;
46290;SDS011;32023;44.444;26.006;2023-07-30T06:23:16;7.03;;;4.00;;
46290;SDS011;32023;44.444;26.006;2023-07-30T06:25:43;6.82;;;4.28;;
46290;SDS011;32023;44.444;26.006;2023-07-30T06:28:09;10.13;;;4.63;;
46290;SDS011;32023;44.444;26.006;2023-07-30T06:30:36;7.78;;;4.10;;
46290;SDS011;32023;44.444;26.006;2023-07-30T06:33:04;6.20;;;4.07;;
46290;SDS011;32023;44.444;26.006;2023-07-30T06:35:30;5.65;;;4.13;;
46290;SDS011;32023;44.444;26.006;2023-07-30T06:37:57;8.38;;;3.83;;
46290;SDS011;32023;44.444;26.006;2023-07-30T06:40:23;10.48;;;4.15;;
46290;SDS011;32023;44.444;26.006;2023-07-30T06:42:49;5.82;;;3.83;;
46290;SDS011;32023;44.444;26.006;2023-07-30T06:45:16;7.80;;;4.35;;
46290;SDS011;32023;44.444;26.006;2023-07-30T06:47:42;6.70;;;4.00;;
46290;SDS011;32023;44.444;26.006;2023-07-30T06:50:09;5.70;;;3.53;;
46290;SDS011;32023;44.444;26.006;2023-07-30T06:52:35;5.88;;;3.95;;
46290;SDS011;32023;44.444;26.006;2023-07-30T06:55:02;10.63;;;4.18;;
46290;SDS011;32023;44.444;26.006;2023-07-30T06:57:29;8.48;;;3.75;;
46290;SDS011;32023;44.444;26.006;2023-07-30T06:59:56;6.10;;;3.75;;
46290;SDS011;32023;44.444;26.006;2023-07-30T07:02:23;7.25;;;3.85;;
46290;SDS011;32023;44.444;26.006;2023-07-30T07:04:49;5.22;;;3.30;;
46290;SDS011;32023;44.444;26.006;2023-07-30T07:07:16;11.10;;;3.50;;
46290;SDS011;32023;44.444;26.006;2023-07-30T07:09:42;5.93;;;3.65;;
46290;SDS011;32023;44.444;26.006;2023-07-30T07:12:08;4.28;;;3.53;;
46290;SDS011;32023;44.444;26.006;2023-07-30T07:14:38;5.70;;;3.63;;
46290;SDS011;32023;44.444;26.006;2023-07-30T07:17:08;7.05;;;3.53;;
46290;SDS011;32023;44.444;26.006;2023-07-30T07:19:37;8.07;;;4.00;;
46290;SDS011;32023;44.444;26.006;2023-07-30T07:22:04;5.55;;;4.18;;
46290;SDS011;32023;44.444;26.006;2023-07-30T07:24:31;4.88;;;3.83;;
46290;SDS011;32023;44.444;26.006;2023-07-30T07:26:57;7.43;;;4.13;;
46290;SDS011;32023;44.444;26.006;2023-07-30T07:29:23;9.85;;;3.75;;
46290;SDS011;32023;44.444;26.006;2023-07-30T07:31:52;6.88;;;3.78;;
46290;SDS011;32023;44.444;26.006;2023-07-30T07:34:20;5.20;;;3.70;;
46290;SDS011;32023;44.444;26.006;2023-07-30T07:36:46;5.22;;;3.60;;
46290;SDS011;32023;44.444;26.006;2023-07-30T07:39:13;5.63;;;3.95;;
46290;SDS011;32023;44.444;26.006;2023-07-30T07:41:39;6.28;;;3.72;;
46290;SDS011;32023;44.444;26.006;2023-07-30T07:44:05;7.47;;;3.55;;
46290;SDS011;32023;44.444;26.006;2023-07-30T07:46:49;4.00;;;3.22;;
46290;SDS011;32023;44.444;26.006;2023-07-30T07:49:21;4.45;;;3.65;;
46290;SDS011;32023;44.444;26.006;2023-07-30T07:51:50;3.65;;;2.85;;
46290;SDS011;32023;44.444;26.006;2023-07-30T07:54:16;3.67;;;2.95;;
46290;SDS011;32023;44.444;26.006;2023-07-30T07:56:43;4.80;;;2.80;;
46290;SDS011;32023;44.444;26.006;2023-07-30T07:59:09;5.07;;;2.83;;
46290;SDS011;32023;44.444;26.006;2023-07-30T08:01:36;9.85;;;2.85;;
46290;SDS011;32023;44.444;26.006;2023-07-30T08:04:05;7.13;;;3.30;;
46290;SDS011;32023;44.444;26.006;2023-07-30T08:06:35;9.75;;;3.15;;
46290;SDS011;32023;44.444;26.006;2023-07-30T08:09:03;4.25;;;2.80;;
46290;SDS011;32023;44.444;26.006;2023-07-30T08:11:30;5.90;;;3.22;;
46290;SDS011;32023;44.444;26.006;2023-07-30T08:14:05;8.75;;;2.40;;
46290;SDS011;32023;44.444;26.006;2023-07-30T08:16:34;4.57;;;2.65;;
46290;SDS011;32023;44.444;26.006;2023-07-30T08:19:01;5.53;;;2.60;;
46290;SDS011;32023;44.444;26.006;2023-07-30T08:21:30;5.00;;;2.33;;
46290;SDS011;32023;44.444;26.006;2023-07-30T08:23:59;6.20;;;2.63;;
46290;SDS011;32023;44.444;26.006;2023-07-30T08:26:26;5.55;;;2.70;;
46290;SDS011;32023;44.444;26.006;2023-07-30T08:28:52;8.02;;;3.33;;
46290;SDS011;32023;44.444;26.006;2023-07-30T08:31:19;5.28;;;2.90;;
46290;SDS011;32023;44.444;26.006;2023-07-30T08:33:46;6.07;;;2.70;;
46290;SDS011;32023;44.444;26.006;2023-07-30T08:36:12;5.85;;;2.90;;
46290;SDS011;32023;44.444;26.006;2023-07-30T08:38:39;4.38;;;3.20;;
46290;SDS011;32023;44.444;26.006;2023-07-30T08:41:05;3.65;;;2.53;;
46290;SDS011;32023;44.444;26.006;2023-07-30T08:43:32;4.22;;;2.42;;
46290;SDS011;32023;44.444;26.006;2023-07-30T08:45:59;6.07;;;2.67;;
46290;SDS011;32023;44.444;26.006;2023-07-30T08:48:26;3.08;;;2.58;;
46290;SDS011;32023;44.444;26.006;2023-07-30T08:50:54;2.80;;;2.47;;
46290;SDS011;32023;44.444;26.006;2023-07-30T08:53:25;4.75;;;2.83;;
46290;SDS011;32023;44.444;26.006;2023-07-30T08:55:55;7.03;;;2.70;;
46290;SDS011;32023;44.444;26.006;2023-07-30T08:58:23;9.15;;;2.97;;
46290;SDS011;32023;44.444;26.006;2023-07-30T09:00:51;3.03;;;2.40;;
46290;SDS011;32023;44.444;26.006;2023-07-30T09:03:20;6.55;;;2.58;;
46290;SDS011;32023;44.444;26.006;2023-07-30T09:06:01;10.05;;;2.63;;
46290;SDS011;32023;44.444;26.006;2023-07-30T09:08:28;4.28;;;2.45;;
46290;SDS011;32023;44.444;26.006;2023-07-30T09:11:07;6.10;;;2.55;;
46290;SDS011;32023;44.444;26.006;2023-07-30T09:13:48;3.40;;;2.42;;
46290;SDS011;32023;44.444;26.006;2023-07-30T09:16:23;3.63;;;2.70;;
46290;SDS011;32023;44.444;26.006;2023-07-30T09:18:52;7.93;;;3.97;;
46290;SDS011;32023;44.444;26.006;2023-07-30T09:21:29;6.93;;;3.47;;
46290;SDS011;32023;44.444;26.006;2023-07-30T09:24:03;3.13;;;2.70;;
46290;SDS011;32023;44.444;26.006;2023-07-30T09:26:42;3.08;;;2.78;;
46290;SDS011;32023;44.444;26.006;2023-07-30T09:29:09;4.68;;;2.60;;
46290;SDS011;32023;44.444;26.006;2023-07-30T09:31:46;2.80;;;2.60;;
46290;SDS011;32023;44.444;26.006;2023-07-30T09:34:16;3.42;;;3.05;;
46290;SDS011;32023;44.444;26.006;2023-07-30T09:36:47;3.83;;;2.83;;
46290;SDS011;32023;44.444;26.006;2023-07-30T09:39:21;4.13;;;3.15;;
46290;SDS011;32023;44.444;26.006;2023-07-30T09:41:48;9.35;;;3.13;;
46290;SDS011;32023;44.444;26.006;2023-07-30T09:44:17;5.93;;;2.58;;
46290;SDS011;32023;44.444;26.006;2023-07-30T09:46:47;5.45;;;3.22;;
46290;SDS011;32023;44.444;26.006;2023-07-30T09:49:15;7.95;;;3.25;;
46290;SDS011;32023;44.444;26.006;2023-07-30T09:51:42;6.65;;;2.90;;
46290;SDS011;32023;44.444;26.006;2023-07-30T09:54:10;4.80;;;3.28;;
46290;SDS011;32023;44.444;26.006;2023-07-30T09:56:38;3.72;;;3.25;;
46290;SDS011;32023;44.444;26.006;2023-07-30T09:59:06;3.85;;;2.92;;
46290;SDS011;32023;44.444;26.006;2023-07-30T10:01:36;3.17;;;2.70;;
46290;SDS011;32023;44.444;26.006;2023-07-30T10:04:10;3.28;;;2.97;;
46290;SDS011;32023;44.444;26.006;2023-07-30T10:06:41;3.13;;;2.83;;
46290;SDS011;32023;44.444;26.006;2023-07-30T10:09:17;5.93;;;3.65;;
46290;SDS011;32023;44.444;26.006;2023-07-30T10:11:49;3.63;;;3.20;;
46290;SDS011;32023;44.444;26.006;2023-07-30T10:14:17;7.90;;;2.97;;
46290;SDS011;32023;44.444;26.006;2023-07-30T10:16:53;3.35;;;3.05;;
46290;SDS011;32023;44.444;26.006;2023-07-30T10:19:25;4.13;;;2.97;;
46290;SDS011;32023;44.444;26.006;2023-07-30T10:22:38;6.63;;;3.25;;
46290;SDS011;32023;44.444;26.006;2023-07-30T10:24:40;3.25;;;2.80;;
46290;SDS011;32023;44.444;26.006;2023-07-30T10:27:23;4.82;;;2.50;;
46290;SDS011;32023;44.444;26.006;2023-07-30T10:32:40;3.55;;;3.25;;
46290;SDS011;32023;44.444;26.006;2023-07-30T10:35:57;4.90;;;3.15;;
46290;SDS011;32023;44.444;26.006;2023-07-30T10:38:22;3.30;;;2.90;;
46290;SDS011;32023;44.444;26.006;2023-07-30T10:41:07;3.88;;;2.75;;
46290;SDS011;32023;44.444;26.006;2023-07-30T10:43:36;3.17;;;2.88;;
46290;SDS011;32023;44.444;26.006;2023-07-30T10:46:12;3.65;;;2.70;;
46290;SDS011;32023;44.444;26.006;2023-07-30T10:48:41;4.45;;;2.92;;
46290;SDS011;32023;44.444;26.006;2023-07-30T10:51:10;4.20;;;2.80;;
46290;SDS011;32023;44.444;26.006;2023-07-30T10:53:47;4.25;;;2.88;;
46290;SDS011;32023;44.444;26.006;2023-07-30T10:56:23;2.80;;;2.60;;
46290;SDS011;32023;44.444;26.006;2023-07-30T10:58:53;3.65;;;2.30;;
46290;SDS011;32023;44.444;26.006;2023-07-30T11:01:20;4.32;;;2.63;;
46290;SDS011;32023;44.444;26.006;2023-07-30T11:03:51;4.72;;;3.13;;
46290;SDS011;32023;44.444;26.006;2023-07-30T11:06:21;5.82;;;3.20;;
46290;SDS011;32023;44.444;26.006;2023-07-30T11:08:49;3.70;;;2.53;;
46290;SDS011;32023;44.444;26.006;2023-07-30T11:11:15;2.53;;;2.30;;
46290;SDS011;32023;44.444;26.006;2023-07-30T11:13:42;3.08;;;2.63;;
46290;SDS011;32023;44.444;26.006;2023-07-30T11:16:13;2.60;;;2.40;;
46290;SDS011;32023;44.444;26.006;2023-07-30T11:18:41;11.48;;;3.00;;
46290;SDS011;32023;44.444;26.006;2023-07-30T11:21:12;2.92;;;2.50;;
46290;SDS011;32023;44.444;26.006;2023-07-30T11:23:41;3.30;;;2.55;;
46290;SDS011;32023;44.444;26.006;2023-07-30T11:26:09;3.40;;;2.80;;
46290;SDS011;32023;44.444;26.006;2023-07-30T11:28:40;4.03;;;3.00;;
46290;SDS011;32023;44.444;26.006;2023-07-30T11:31:08;5.53;;;3.10;;
46290;SDS011;32023;44.444;26.006;2023-07-30T11:33:49;7.85;;;2.70;;
46290;SDS011;32023;44.444;26.006;2023-07-30T11:36:21;3.50;;;3.20;;
46290;SDS011;32023;44.444;26.006;2023-07-30T11:38:49;6.47;;;2.85;;
46290;SDS011;32023;44.444;26.006;2023-07-30T11:41:20;3.78;;;2.70;;
46290;SDS011;32023;44.444;26.006;2023-07-30T11:43:48;4.63;;;2.72;;
46290;SDS011;32023;44.444;26.006;2023-07-30T11:46:17;3.40;;;2.83;;
46290;SDS011;32023;44.444;26.006;2023-07-30T11:48:46;3.28;;;2.75;;
46290;SDS011;32023;44.444;26.006;2023-07-30T11:51:22;3.33;;;2.70;;
46290;SDS011;32023;44.444;26.006;2023-07-30T11:53:50;8.68;;;3.28;;
46290;SDS011;32023;44.444;26.006;2023-07-30T11:58:50;5.32;;;2.83;;
46290;SDS011;32023;44.444;26.006;2023-07-30T12:01:20;4.15;;;2.58;;
46290;SDS011;32023;44.444;26.006;2023-07-30T12:03:50;4.28;;;2.90;;
46290;SDS011;32023;44.444;26.006;2023-07-30T12:06:20;2.88;;;2.67;;
46290;SDS011;32023;44.444;26.006;2023-07-30T12:08:48;2.97;;;2.53;;
46290;SDS011;32023;44.444;26.006;2023-07-30T12:17:16;4.95;;;3.00;;
46290;SDS011;32023;44.444;26.006;2023-07-30T12:19:53;5.38;;;3.20;;
46290;SDS011;32023;44.444;26.006;2023-07-30T12:22:25;4.88;;;3.13;;
46290;SDS011;32023;44.444;26.006;2023-07-30T12:24:51;6.55;;;3.22;;
46290;SDS011;32023;44.444;26.006;2023-07-30T12:27:18;6.53;;;3.03;;
46290;SDS011;32023;44.444;26.006;2023-07-30T12:29:45;2.92;;;2.70;;
46290;SDS011;32023;44.444;26.006;2023-07-30T12:32:11;5.93;;;3.30;;
46290;SDS011;32023;44.444;26.006;2023-07-30T12:34:38;3.92;;;2.63;;
46290;SDS011;32023;44.444;26.006;2023-07-30T12:37:04;4.53;;;3.03;;
46290;SDS011;32023;44.444;26.006;2023-07-30T12:39:31;4.18;;;2.65;;
46290;SDS011;32023;44.444;26.006;2023-07-30T12:42:15;5.68;;;3.20;;
46290;SDS011;32023;44.444;26.006;2023-07-30T12:44:41;3.42;;;3.00;;
46290;SDS011;32023;44.444;26.006;2023-07-30T12:47:11;4.20;;;2.97;;
46290;SDS011;32023;44.444;26.006;2023-07-30T12:49:37;3.10;;;2.80;;
46290;SDS011;32023;44.444;26.006;2023-07-30T12:52:04;4.10;;;3.05;;
46290;SDS011;32023;44.444;26.006;2023-07-30T12:54:31;3.85;;;2.67;;
46290;SDS011;32023;44.444;26.006;2023-07-30T13:00:22;3.10;;;2.45;;
46290;SDS011;32023;44.444;26.006;2023-07-30T13:02:51;4.45;;;2.80;;
46290;SDS011;32023;44.444;26.006;2023-07-30T13:09:02;4.32;;;2.72;;
46290;SDS011;32023;44.444;26.006;2023-07-30T13:11:28;2.95;;;2.75;;
46290;SDS011;32023;44.444;26.006;2023-07-30T13:13:54;4.18;;;2.60;;
46290;SDS011;32023;44.444;26.006;2023-07-30T13:16:23;3.72;;;3.13;;
46290;SDS011;32023;44.444;26.006;2023-07-30T13:18:57;7.68;;;3.00;;
46290;SDS011;32023;44.444;26.006;2023-07-30T13:21:23;4.90;;;2.47;;
46290;SDS011;32023;44.444;26.006;2023-07-30T13:23:50;4.30;;;2.90;;
46290;SDS011;32023;44.444;26.006;2023-07-30T13:26:17;4.03;;;2.95;;
46290;SDS011;32023;44.444;26.006;2023-07-30T13:28:44;3.33;;;3.00;;
46290;SDS011;32023;44.444;26.006;2023-07-30T13:31:10;5.55;;;3.00;;
46290;SDS011;32023;44.444;26.006;2023-07-30T13:33:37;5.95;;;2.70;;
46290;SDS011;32023;44.444;26.006;2023-07-30T13:36:03;4.63;;;3.70;;
46290;SDS011;32023;44.444;26.006;2023-07-30T13:38:30;4.95;;;2.88;;
46290;SDS011;32023;44.444;26.006;2023-07-30T13:40:59;6.65;;;2.92;;
46290;SDS011;32023;44.444;26.006;2023-07-30T13:43:25;6.68;;;2.63;;
46290;SDS011;32023;44.444;26.006;2023-07-30T13:45:52;4.40;;;3.20;;
46290;SDS011;32023;44.444;26.006;2023-07-30T13:48:19;4.15;;;3.17;;
46290;SDS011;32023;44.444;26.006;2023-07-30T13:50:45;4.97;;;2.60;;
46290;SDS011;32023;44.444;26.006;2023-07-30T13:53:11;9.77;;;3.00;;
46290;SDS011;32023;44.444;26.006;2023-07-30T13:55:38;4.95;;;2.90;;
46290;SDS011;32023;44.444;26.006;2023-07-30T13:58:05;6.05;;;2.63;;
46290;SDS011;32023;44.444;26.006;2023-07-30T14:00:31;3.22;;;2.78;;
46290;SDS011;32023;44.444;26.006;2023-07-30T14:02:57;3.00;;;2.33;;
46290;SDS011;32023;44.444;26.006;2023-07-30T14:05:24;3.63;;;2.60;;
46290;SDS011;32023;44.444;26.006;2023-07-30T14:07:52;3.53;;;2.72;;
46290;SDS011;32023;44.444;26.006;2023-07-30T14:10:19;4.35;;;2.85;;
46290;SDS011;32023;44.444;26.006;2023-07-30T14:12:45;3.75;;;2.88;;
46290;SDS011;32023;44.444;26.006;2023-07-30T14:15:11;2.67;;;2.47;;
46290;SDS011;32023;44.444;26.006;2023-07-30T14:17:38;2.70;;;2.50;;
46290;SDS011;32023;44.444;26.006;2023-07-30T14:20:04;2.92;;;2.65;;
46290;SDS011;32023;44.444;26.006;2023-07-30T14:22:31;4.78;;;2.30;;
46290;SDS011;32023;44.444;26.006;2023-07-30T14:24:58;2.65;;;2.38;;
46290;SDS011;32023;44.444;26.006;2023-07-30T14:27:24;6.32;;;3.15;;
46290;SDS011;32023;44.444;26.006;2023-07-30T14:29:51;3.72;;;2.50;;
46290;SDS011;32023;44.444;26.006;2023-07-30T14:32:19;6.20;;;2.70;;
46290;SDS011;32023;44.444;26.006;2023-07-30T14:34:45;2.88;;;2.42;;
46290;SDS011;32023;44.444;26.006;2023-07-30T14:37:12;3.15;;;2.67;;
46290;SDS011;32023;44.444;26.006;2023-07-30T14:39:39;5.22;;;2.50;;
46290;SDS011;32023;44.444;26.006;2023-07-30T14:42:06;5.20;;;2.47;;
46290;SDS011;32023;44.444;26.006;2023-07-30T14:44:34;5.28;;;2.65;;
46290;SDS011;32023;44.444;26.006;2023-07-30T14:47:00;4.35;;;2.30;;
46290;SDS011;32023;44.444;26.006;2023-07-30T14:49:28;5.10;;;2.25;;
46290;SDS011;32023;44.444;26.006;2023-07-30T14:51:54;3.10;;;2.50;;
46290;SDS011;32023;44.444;26.006;2023-07-30T14:54:21;3.22;;;2.40;;
46290;SDS011;32023;44.444;26.006;2023-07-30T14:56:47;3.40;;;2.20;;